sensor_id;sensor_type;location;lat;lon;timestamp;temperature;humidity
68378;DHT22;55322;48.146;11.516;2022-12-29T00:01:14;4.32;69.18
68378;DHT22;55322;48.146;11.516;2022-12-29T00:03:39;4.32;68.81
68378;DHT22;55322;48.146;11.516;2022-12-29T00:06:05;4.36;68.17
68378;DHT22;55322;48.146;11.516;2022-12-29T00:08:30;4.40;68.86
68378;DHT22;55322;48.146;11.516;2022-12-29T00:11:21;4.50;67.39
68378;DHT22;55322;48.146;11.516;2022-12-29T00:13:47;4.54;67.08
68378;DHT22;55322;48.146;11.516;2022-12-29T00:16:33;4.57;66.91
68378;DHT22;55322;48.146;11.516;2022-12-29T00:18:59;4.56;66.63
68378;DHT22;55322;48.146;11.516;2022-12-29T00:21:25;4.46;68.43
68378;DHT22;55322;48.146;11.516;2022-12-29T00:24:18;4.52;66.63
68378;DHT22;55322;48.146;11.516;2022-12-29T00:26:58;4.56;66.66
68378;DHT22;55322;48.146;11.516;2022-12-29T00:29:48;4.60;66.85
68378;DHT22;55322;48.146;11.516;2022-12-29T00:32:32;4.59;66.83
68378;DHT22;55322;48.146;11.516;2022-12-29T00:35:29;4.45;68.16
68378;DHT22;55322;48.146;11.516;2022-12-29T00:37:55;4.39;68.19
68378;DHT22;55322;48.146;11.516;2022-12-29T00:40:40;4.33;67.99
68378;DHT22;55322;48.146;11.516;2022-12-29T00:43:25;4.29;68.15
68378;DHT22;55322;48.146;11.516;2022-12-29T00:46:08;4.25;68.33
68378;DHT22;55322;48.146;11.516;2022-12-29T00:48:34;4.13;69.33
68378;DHT22;55322;48.146;11.516;2022-12-29T00:51:18;4.05;69.49
68378;DHT22;55322;48.146;11.516;2022-12-29T00:53:43;3.95;70.57
68378;DHT22;55322;48.146;11.516;2022-12-29T00:56:08;3.88;70.52
68378;DHT22;55322;48.146;11.516;2022-12-29T00:58:34;4.02;69.37
68378;DHT22;55322;48.146;11.516;2022-12-29T01:01:04;3.95;69.14
68378;DHT22;55322;48.146;11.516;2022-12-29T01:03:29;3.95;69.04
68378;DHT22;55322;48.146;11.516;2022-12-29T01:05:55;3.99;68.82
68378;DHT22;55322;48.146;11.516;2022-12-29T01:08:20;4.05;68.23
68378;DHT22;55322;48.146;11.516;2022-12-29T01:10:46;4.01;69.24
68378;DHT22;55322;48.146;11.516;2022-12-29T01:13:11;4.08;68.25
68378;DHT22;55322;48.146;11.516;2022-12-29T01:15:36;4.12;67.73
68378;DHT22;55322;48.146;11.516;2022-12-29T01:18:02;4.05;69.07
68378;DHT22;55322;48.146;11.516;2022-12-29T01:20:27;4.05;68.62
68378;DHT22;55322;48.146;11.516;2022-12-29T01:22:53;3.99;69.04
68378;DHT22;55322;48.146;11.516;2022-12-29T01:25:19;3.92;70.07
68378;DHT22;55322;48.146;11.516;2022-12-29T01:27:44;3.88;69.85
68378;DHT22;55322;48.146;11.516;2022-12-29T01:30:10;3.89;69.17
68378;DHT22;55322;48.146;11.516;2022-12-29T01:32:35;3.88;69.39
68378;DHT22;55322;48.146;11.516;2022-12-29T01:35:00;3.87;69.65
68378;DHT22;55322;48.146;11.516;2022-12-29T01:37:26;3.94;68.72
68378;DHT22;55322;48.146;11.516;2022-12-29T01:39:51;3.94;68.80
68378;DHT22;55322;48.146;11.516;2022-12-29T01:42:18;3.98;68.94
68378;DHT22;55322;48.146;11.516;2022-12-29T01:44:57;3.94;70.11
68378;DHT22;55322;48.146;11.516;2022-12-29T01:47:28;3.85;70.50
68378;DHT22;55322;48.146;11.516;2022-12-29T01:49:58;3.79;69.75
68378;DHT22;55322;48.146;11.516;2022-12-29T01:52:26;3.84;70.31
68378;DHT22;55322;48.146;11.516;2022-12-29T01:54:54;3.81;70.04
68378;DHT22;55322;48.146;11.516;2022-12-29T01:57:25;3.82;69.95
68378;DHT22;55322;48.146;11.516;2022-12-29T02:00:06;3.89;69.55
68378;DHT22;55322;48.146;11.516;2022-12-29T02:02:35;3.85;69.80
68378;DHT22;55322;48.146;11.516;2022-12-29T02:05:09;3.88;69.32
68378;DHT22;55322;48.146;11.516;2022-12-29T02:07:37;3.91;69.71
68378;DHT22;55322;48.146;11.516;2022-12-29T02:10:03;3.88;69.61
68378;DHT22;55322;48.146;11.516;2022-12-29T02:12:28;3.94;69.75
68378;DHT22;55322;48.146;11.516;2022-12-29T02:14:58;3.89;69.92
68378;DHT22;55322;48.146;11.516;2022-12-29T02:31:59;3.95;69.19
68378;DHT22;55322;48.146;11.516;2022-12-29T02:34:40;4.02;68.04
68378;DHT22;55322;48.146;11.516;2022-12-29T02:39:59;4.20;66.91
68378;DHT22;55322;48.146;11.516;2022-12-29T02:43:03;4.36;65.91
68378;DHT22;55322;48.146;11.516;2022-12-29T02:45:47;4.54;64.81
68378;DHT22;55322;48.146;11.516;2022-12-29T02:48:34;4.60;64.57
68378;DHT22;55322;48.146;11.516;2022-12-29T02:51:06;4.79;62.96
68378;DHT22;55322;48.146;11.516;2022-12-29T02:53:33;4.88;62.75
68378;DHT22;55322;48.146;11.516;2022-12-29T02:56:18;5.03;62.30
68378;DHT22;55322;48.146;11.516;2022-12-29T02:58:43;5.08;61.57
68378;DHT22;55322;48.146;11.516;2022-12-29T03:07:24;5.30;60.70
68378;DHT22;55322;48.146;11.516;2022-12-29T03:10:33;5.42;60.05
68378;DHT22;55322;48.146;11.516;2022-12-29T03:13:08;5.54;59.59
68378;DHT22;55322;48.146;11.516;2022-12-29T03:19:20;5.59;60.23
68378;DHT22;55322;48.146;11.516;2022-12-29T03:21:59;5.58;60.42
68378;DHT22;55322;48.146;11.516;2022-12-29T03:24:47;5.63;59.47
68378;DHT22;55322;48.146;11.516;2022-12-29T03:27:18;5.66;60.79
68378;DHT22;55322;48.146;11.516;2022-12-29T03:29:55;5.68;60.06
68378;DHT22;55322;48.146;11.516;2022-12-29T03:32:26;5.73;58.97
68378;DHT22;55322;48.146;11.516;2022-12-29T03:34:53;5.73;60.15
68378;DHT22;55322;48.146;11.516;2022-12-29T03:37:28;5.72;59.38
68378;DHT22;55322;48.146;11.516;2022-12-29T03:39:56;5.73;59.84
68378;DHT22;55322;48.146;11.516;2022-12-29T03:42:23;5.70;59.89
68378;DHT22;55322;48.146;11.516;2022-12-29T03:44:53;5.75;59.69
68378;DHT22;55322;48.146;11.516;2022-12-29T03:47:20;5.79;58.83
68378;DHT22;55322;48.146;11.516;2022-12-29T03:49:46;5.80;60.01
68378;DHT22;55322;48.146;11.516;2022-12-29T03:52:11;5.86;59.89
68378;DHT22;55322;48.146;11.516;2022-12-29T03:54:36;5.88;58.99
68378;DHT22;55322;48.146;11.516;2022-12-29T03:57:02;5.90;59.27
68378;DHT22;55322;48.146;11.516;2022-12-29T03:59:27;5.98;58.80
68378;DHT22;55322;48.146;11.516;2022-12-29T04:01:52;5.99;58.35
68378;DHT22;55322;48.146;11.516;2022-12-29T04:04:18;5.99;58.24
68378;DHT22;55322;48.146;11.516;2022-12-29T04:06:43;5.99;58.35
68378;DHT22;55322;48.146;11.516;2022-12-29T04:09:09;5.99;58.83
68378;DHT22;55322;48.146;11.516;2022-12-29T04:11:35;6.00;58.26
68378;DHT22;55322;48.146;11.516;2022-12-29T04:14:00;6.07;58.18
68378;DHT22;55322;48.146;11.516;2022-12-29T04:16:26;6.06;58.06
68378;DHT22;55322;48.146;11.516;2022-12-29T04:18:51;6.09;58.47
68378;DHT22;55322;48.146;11.516;2022-12-29T04:21:16;6.09;58.01
68378;DHT22;55322;48.146;11.516;2022-12-29T04:23:42;6.00;58.61
68378;DHT22;55322;48.146;11.516;2022-12-29T04:26:07;6.03;58.70
68378;DHT22;55322;48.146;11.516;2022-12-29T04:28:34;6.00;58.55
68378;DHT22;55322;48.146;11.516;2022-12-29T04:31:00;5.98;59.60
68378;DHT22;55322;48.146;11.516;2022-12-29T04:33:26;5.92;59.35
68378;DHT22;55322;48.146;11.516;2022-12-29T04:35:51;6.09;57.49
68378;DHT22;55322;48.146;11.516;2022-12-29T04:38:21;6.16;58.29
68378;DHT22;55322;48.146;11.516;2022-12-29T04:40:47;6.13;58.72
68378;DHT22;55322;48.146;11.516;2022-12-29T04:43:13;6.17;57.26
68378;DHT22;55322;48.146;11.516;2022-12-29T04:45:45;6.19;58.05
68378;DHT22;55322;48.146;11.516;2022-12-29T04:48:11;6.20;57.70
68378;DHT22;55322;48.146;11.516;2022-12-29T04:50:37;6.19;57.63
68378;DHT22;55322;48.146;11.516;2022-12-29T04:53:02;6.23;57.05
68378;DHT22;55322;48.146;11.516;2022-12-29T04:55:28;6.26;57.25
68378;DHT22;55322;48.146;11.516;2022-12-29T04:57:53;6.22;58.06
68378;DHT22;55322;48.146;11.516;2022-12-29T05:00:18;6.22;57.90
68378;DHT22;55322;48.146;11.516;2022-12-29T05:02:44;6.20;57.52
68378;DHT22;55322;48.146;11.516;2022-12-29T05:05:10;6.26;57.18
68378;DHT22;55322;48.146;11.516;2022-12-29T05:07:35;6.29;57.13
68378;DHT22;55322;48.146;11.516;2022-12-29T05:10:00;6.30;56.82
68378;DHT22;55322;48.146;11.516;2022-12-29T05:12:29;6.29;56.67
68378;DHT22;55322;48.146;11.516;2022-12-29T05:14:55;6.26;56.99
68378;DHT22;55322;48.146;11.516;2022-12-29T05:17:20;6.29;57.91
68378;DHT22;55322;48.146;11.516;2022-12-29T05:19:45;6.27;57.42
68378;DHT22;55322;48.146;11.516;2022-12-29T05:22:11;6.26;57.83
68378;DHT22;55322;48.146;11.516;2022-12-29T05:24:36;6.23;58.01
68378;DHT22;55322;48.146;11.516;2022-12-29T05:27:01;6.37;57.09
68378;DHT22;55322;48.146;11.516;2022-12-29T05:29:27;6.32;57.24
68378;DHT22;55322;48.146;11.516;2022-12-29T05:31:52;6.40;56.33
68378;DHT22;55322;48.146;11.516;2022-12-29T05:34:17;6.36;57.91
68378;DHT22;55322;48.146;11.516;2022-12-29T05:36:43;6.37;57.18
68378;DHT22;55322;48.146;11.516;2022-12-29T05:39:08;6.37;56.67
68378;DHT22;55322;48.146;11.516;2022-12-29T05:41:34;6.41;56.45
68378;DHT22;55322;48.146;11.516;2022-12-29T05:43:59;6.41;56.93
68378;DHT22;55322;48.146;11.516;2022-12-29T05:46:25;6.38;56.65
68378;DHT22;55322;48.146;11.516;2022-12-29T05:48:50;6.43;55.68
68378;DHT22;55322;48.146;11.516;2022-12-29T05:51:16;6.37;56.35
68378;DHT22;55322;48.146;11.516;2022-12-29T05:53:41;6.37;56.79
68378;DHT22;55322;48.146;11.516;2022-12-29T05:56:06;6.37;57.27
68378;DHT22;55322;48.146;11.516;2022-12-29T05:58:32;6.38;56.60
68378;DHT22;55322;48.146;11.516;2022-12-29T06:00:57;6.41;56.06
68378;DHT22;55322;48.146;11.516;2022-12-29T06:03:23;6.38;57.17
68378;DHT22;55322;48.146;11.516;2022-12-29T06:05:48;6.38;56.87
68378;DHT22;55322;48.146;11.516;2022-12-29T06:08:14;6.43;56.36
68378;DHT22;55322;48.146;11.516;2022-12-29T06:10:39;6.37;57.88
68378;DHT22;55322;48.146;11.516;2022-12-29T06:13:05;6.36;57.73
68378;DHT22;55322;48.146;11.516;2022-12-29T06:15:31;6.44;56.37
68378;DHT22;55322;48.146;11.516;2022-12-29T06:17:57;6.40;57.02
68378;DHT22;55322;48.146;11.516;2022-12-29T06:20:22;6.38;56.72
68378;DHT22;55322;48.146;11.516;2022-12-29T06:22:47;6.43;56.34
68378;DHT22;55322;48.146;11.516;2022-12-29T06:25:14;6.36;57.93
68378;DHT22;55322;48.146;11.516;2022-12-29T06:27:40;6.30;57.92
68378;DHT22;55322;48.146;11.516;2022-12-29T06:30:06;6.34;57.37
68378;DHT22;55322;48.146;11.516;2022-12-29T06:32:31;6.32;56.96
68378;DHT22;55322;48.146;11.516;2022-12-29T06:34:56;6.37;56.39
68378;DHT22;55322;48.146;11.516;2022-12-29T06:37:22;6.30;58.09
68378;DHT22;55322;48.146;11.516;2022-12-29T06:39:47;6.37;56.83
68378;DHT22;55322;48.146;11.516;2022-12-29T06:42:12;6.36;57.36
68378;DHT22;55322;48.146;11.516;2022-12-29T06:44:37;6.27;58.11
68378;DHT22;55322;48.146;11.516;2022-12-29T06:47:03;6.36;57.31
68378;DHT22;55322;48.146;11.516;2022-12-29T06:49:28;6.30;58.47
68378;DHT22;55322;48.146;11.516;2022-12-29T06:51:53;6.32;57.83
68378;DHT22;55322;48.146;11.516;2022-12-29T06:54:19;6.36;57.47
68378;DHT22;55322;48.146;11.516;2022-12-29T06:56:44;6.30;57.91
68378;DHT22;55322;48.146;11.516;2022-12-29T06:59:10;6.24;58.34
68378;DHT22;55322;48.146;11.516;2022-12-29T07:01:35;6.29;57.71
68378;DHT22;55322;48.146;11.516;2022-12-29T07:04:02;6.26;57.87
68378;DHT22;55322;48.146;11.516;2022-12-29T07:06:27;6.26;57.44
68378;DHT22;55322;48.146;11.516;2022-12-29T07:08:53;6.26;57.73
68378;DHT22;55322;48.146;11.516;2022-12-29T07:11:20;6.29;57.50
68378;DHT22;55322;48.146;11.516;2022-12-29T07:13:46;6.30;58.04
68378;DHT22;55322;48.146;11.516;2022-12-29T07:16:11;6.37;56.55
68378;DHT22;55322;48.146;11.516;2022-12-29T07:18:36;6.32;57.78
68378;DHT22;55322;48.146;11.516;2022-12-29T07:21:02;6.37;57.14
68378;DHT22;55322;48.146;11.516;2022-12-29T07:23:28;6.41;57.30
68378;DHT22;55322;48.146;11.516;2022-12-29T07:26:04;6.40;57.49
68378;DHT22;55322;48.146;11.516;2022-12-29T07:28:30;6.33;57.80
68378;DHT22;55322;48.146;11.516;2022-12-29T07:30:56;6.37;57.47
68378;DHT22;55322;48.146;11.516;2022-12-29T07:33:21;6.33;58.64
68378;DHT22;55322;48.146;11.516;2022-12-29T07:35:46;6.38;57.74
68378;DHT22;55322;48.146;11.516;2022-12-29T07:38:12;6.37;58.24
68378;DHT22;55322;48.146;11.516;2022-12-29T07:40:37;6.43;57.85
68378;DHT22;55322;48.146;11.516;2022-12-29T07:43:02;6.47;57.18
68378;DHT22;55322;48.146;11.516;2022-12-29T07:45:29;6.57;56.59
68378;DHT22;55322;48.146;11.516;2022-12-29T07:47:54;6.51;58.49
68378;DHT22;55322;48.146;11.516;2022-12-29T07:50:20;6.63;56.52
68378;DHT22;55322;48.146;11.516;2022-12-29T07:52:45;6.73;57.20
68378;DHT22;55322;48.146;11.516;2022-12-29T07:55:13;6.85;56.44
68378;DHT22;55322;48.146;11.516;2022-12-29T07:57:38;6.97;57.02
68378;DHT22;55322;48.146;11.516;2022-12-29T08:00:04;7.09;54.71
68378;DHT22;55322;48.146;11.516;2022-12-29T08:02:30;7.18;55.55
68378;DHT22;55322;48.146;11.516;2022-12-29T08:04:55;7.30;54.89
68378;DHT22;55322;48.146;11.516;2022-12-29T08:07:20;7.83;51.94
68378;DHT22;55322;48.146;11.516;2022-12-29T08:09:46;7.86;51.41
68378;DHT22;55322;48.146;11.516;2022-12-29T08:12:11;7.83;51.45
68378;DHT22;55322;48.146;11.516;2022-12-29T08:14:36;7.70;52.45
68378;DHT22;55322;48.146;11.516;2022-12-29T08:17:02;7.67;52.56
68378;DHT22;55322;48.146;11.516;2022-12-29T08:19:27;7.69;52.83
68378;DHT22;55322;48.146;11.516;2022-12-29T08:21:53;7.66;52.22
68378;DHT22;55322;48.146;11.516;2022-12-29T08:24:18;7.66;52.11
68378;DHT22;55322;48.146;11.516;2022-12-29T08:26:43;7.66;52.59
68378;DHT22;55322;48.146;11.516;2022-12-29T08:29:09;7.73;52.57
68378;DHT22;55322;48.146;11.516;2022-12-29T08:31:34;7.90;51.33
68378;DHT22;55322;48.146;11.516;2022-12-29T08:34:00;8.41;52.35
68378;DHT22;55322;48.146;11.516;2022-12-29T08:36:26;9.03;49.27
68378;DHT22;55322;48.146;11.516;2022-12-29T08:38:52;9.65;47.51
68378;DHT22;55322;48.146;11.516;2022-12-29T08:41:17;10.29;46.32
68378;DHT22;55322;48.146;11.516;2022-12-29T08:43:46;10.05;46.00
68378;DHT22;55322;48.146;11.516;2022-12-29T08:46:11;10.25;46.52
68378;DHT22;55322;48.146;11.516;2022-12-29T08:48:37;10.11;45.77
68378;DHT22;55322;48.146;11.516;2022-12-29T08:51:02;9.73;47.10
68378;DHT22;55322;48.146;11.516;2022-12-29T08:53:27;9.75;46.69
68378;DHT22;55322;48.146;11.516;2022-12-29T08:55:58;9.98;46.39
68378;DHT22;55322;48.146;11.516;2022-12-29T08:58:24;9.85;47.23
68378;DHT22;55322;48.146;11.516;2022-12-29T09:00:52;9.91;46.82
68378;DHT22;55322;48.146;11.516;2022-12-29T09:03:18;9.93;47.30
68378;DHT22;55322;48.146;11.516;2022-12-29T09:05:48;10.22;46.20
68378;DHT22;55322;48.146;11.516;2022-12-29T09:08:13;10.75;44.16
68378;DHT22;55322;48.146;11.516;2022-12-29T09:10:38;11.28;44.04
68378;DHT22;55322;48.146;11.516;2022-12-29T09:13:04;10.89;44.16
68378;DHT22;55322;48.146;11.516;2022-12-29T09:15:29;10.69;44.11
68378;DHT22;55322;48.146;11.516;2022-12-29T09:17:54;10.62;45.33
68378;DHT22;55322;48.146;11.516;2022-12-29T09:20:20;10.44;46.24
68378;DHT22;55322;48.146;11.516;2022-12-29T09:22:47;10.34;44.24
68378;DHT22;55322;48.146;11.516;2022-12-29T09:25:12;10.62;44.75
68378;DHT22;55322;48.146;11.516;2022-12-29T09:27:38;10.55;44.39
68378;DHT22;55322;48.146;11.516;2022-12-29T09:30:05;10.52;44.91
68378;DHT22;55322;48.146;11.516;2022-12-29T09:32:31;10.49;44.83
68378;DHT22;55322;48.146;11.516;2022-12-29T09:34:57;10.95;45.51
68378;DHT22;55322;48.146;11.516;2022-12-29T09:37:22;11.33;43.19
68378;DHT22;55322;48.146;11.516;2022-12-29T09:39:47;11.34;43.10
68378;DHT22;55322;48.146;11.516;2022-12-29T09:47:30;10.86;45.11
68378;DHT22;55322;48.146;11.516;2022-12-29T09:50:01;10.69;45.99
68378;DHT22;55322;48.146;11.516;2022-12-29T09:52:32;10.62;47.19
68378;DHT22;55322;48.146;11.516;2022-12-29T09:55:01;10.52;46.23
68378;DHT22;55322;48.146;11.516;2022-12-29T10:03:10;10.59;54.96
68378;DHT22;55322;48.146;11.516;2022-12-29T10:05:46;10.70;45.01
68378;DHT22;55322;48.146;11.516;2022-12-29T10:08:30;10.52;46.72
68378;DHT22;55322;48.146;11.516;2022-12-29T10:17:10;10.32;46.54
68378;DHT22;55322;48.146;11.516;2022-12-29T10:22:43;10.34;48.05
68378;DHT22;55322;48.146;11.516;2022-12-29T10:25:19;10.31;48.03
68378;DHT22;55322;48.146;11.516;2022-12-29T10:27:50;10.29;47.63
68378;DHT22;55322;48.146;11.516;2022-12-29T10:30:16;10.38;47.49
68378;DHT22;55322;48.146;11.516;2022-12-29T10:32:55;10.44;47.13
68378;DHT22;55322;48.146;11.516;2022-12-29T10:35:22;10.45;46.20
68378;DHT22;55322;48.146;11.516;2022-12-29T10:38:05;10.59;45.56
68378;DHT22;55322;48.146;11.516;2022-12-29T10:40:46;10.82;45.39
68378;DHT22;55322;48.146;11.516;2022-12-29T10:43:41;11.06;44.74
68378;DHT22;55322;48.146;11.516;2022-12-29T10:46:14;11.28;45.03
68378;DHT22;55322;48.146;11.516;2022-12-29T10:48:41;11.31;43.90
68378;DHT22;55322;48.146;11.516;2022-12-29T10:51:10;11.31;44.01
68378;DHT22;55322;48.146;11.516;2022-12-29T10:53:44;11.30;46.56
68378;DHT22;55322;48.146;11.516;2022-12-29T10:56:34;11.41;44.89
68378;DHT22;55322;48.146;11.516;2022-12-29T10:59:30;11.85;42.03
68378;DHT22;55322;48.146;11.516;2022-12-29T11:05:18;12.14;42.07
68378;DHT22;55322;48.146;11.516;2022-12-29T11:07:19;12.25;42.24
68378;DHT22;55322;48.146;11.516;2022-12-29T11:09:45;12.40;40.86
68378;DHT22;55322;48.146;11.516;2022-12-29T11:12:37;12.62;41.99
68378;DHT22;55322;48.146;11.516;2022-12-29T11:17:58;13.03;40.56
68378;DHT22;55322;48.146;11.516;2022-12-29T11:22:56;13.75;39.79
68378;DHT22;55322;48.146;11.516;2022-12-29T11:25:21;14.15;39.06
68378;DHT22;55322;48.146;11.516;2022-12-29T11:28:14;14.34;38.81
68378;DHT22;55322;48.146;11.516;2022-12-29T11:30:40;14.08;40.27
68378;DHT22;55322;48.146;11.516;2022-12-29T11:33:06;13.90;40.81
68378;DHT22;55322;48.146;11.516;2022-12-29T11:35:40;13.83;41.51
68378;DHT22;55322;48.146;11.516;2022-12-29T11:38:18;14.02;37.84
68378;DHT22;55322;48.146;11.516;2022-12-29T11:40:44;14.26;36.53
68378;DHT22;55322;48.146;11.516;2022-12-29T11:43:22;14.09;37.12
68378;DHT22;55322;48.146;11.516;2022-12-29T11:45:48;13.77;38.39
68378;DHT22;55322;48.146;11.516;2022-12-29T11:48:17;13.89;37.86
68378;DHT22;55322;48.146;11.516;2022-12-29T11:50:50;14.22;38.36
68378;DHT22;55322;48.146;11.516;2022-12-29T11:53:43;14.50;37.39
68378;DHT22;55322;48.146;11.516;2022-12-29T11:56:12;14.88;35.91
68378;DHT22;55322;48.146;11.516;2022-12-29T11:58:38;14.94;35.04
68378;DHT22;55322;48.146;11.516;2022-12-29T12:01:10;14.97;36.20
68378;DHT22;55322;48.146;11.516;2022-12-29T12:03:45;14.94;34.20
68378;DHT22;55322;48.146;11.516;2022-12-29T12:06:16;14.84;35.72
68378;DHT22;55322;48.146;11.516;2022-12-29T12:09:27;14.91;36.03
68378;DHT22;55322;48.146;11.516;2022-12-29T12:11:44;15.08;36.36
68378;DHT22;55322;48.146;11.516;2022-12-29T12:16:51;14.73;36.90
68378;DHT22;55322;48.146;11.516;2022-12-29T12:19:34;14.53;36.25
68378;DHT22;55322;48.146;11.516;2022-12-29T12:22:10;14.18;36.63
68378;DHT22;55322;48.146;11.516;2022-12-29T12:24:47;13.74;39.63
68378;DHT22;55322;48.146;11.516;2022-12-29T12:27:18;13.54;40.32
68378;DHT22;55322;48.146;11.516;2022-12-29T12:29:57;13.64;40.79
68378;DHT22;55322;48.146;11.516;2022-12-29T12:32:31;13.69;39.93
68378;DHT22;55322;48.146;11.516;2022-12-29T12:35:03;13.88;40.19
68378;DHT22;55322;48.146;11.516;2022-12-29T12:43:45;13.54;42.39
68378;DHT22;55322;48.146;11.516;2022-12-29T12:46:23;13.51;42.55
68378;DHT22;55322;48.146;11.516;2022-12-29T12:51:57;13.08;44.99
68378;DHT22;55322;48.146;11.516;2022-12-29T12:54:36;12.96;45.96
68378;DHT22;55322;48.146;11.516;2022-12-29T13:03:10;12.83;47.35
68378;DHT22;55322;48.146;11.516;2022-12-29T13:24:38;12.49;49.53
68378;DHT22;55322;48.146;11.516;2022-12-29T13:30:15;12.39;49.45
68378;DHT22;55322;48.146;11.516;2022-12-29T13:35:51;12.40;49.20
68378;DHT22;55322;48.146;11.516;2022-12-29T13:41:09;12.25;50.79
68378;DHT22;55322;48.146;11.516;2022-12-29T13:43:38;12.19;50.89
68378;DHT22;55322;48.146;11.516;2022-12-29T13:46:09;12.11;50.79
68378;DHT22;55322;48.146;11.516;2022-12-29T13:48:53;12.08;51.84
68378;DHT22;55322;48.146;11.516;2022-12-29T13:51:23;12.02;51.65
68378;DHT22;55322;48.146;11.516;2022-12-29T13:54:07;11.95;51.72
68378;DHT22;55322;48.146;11.516;2022-12-29T14:02:21;11.77;53.30
68378;DHT22;55322;48.146;11.516;2022-12-29T14:05:14;11.71;52.38
68378;DHT22;55322;48.146;11.516;2022-12-29T14:07:58;11.71;52.95
68378;DHT22;55322;48.146;11.516;2022-12-29T14:10:33;11.64;53.56
68378;DHT22;55322;48.146;11.516;2022-12-29T14:15:38;11.57;53.52
68378;DHT22;55322;48.146;11.516;2022-12-29T14:18:15;11.51;54.37
68378;DHT22;55322;48.146;11.516;2022-12-29T14:21:08;11.44;54.30
68378;DHT22;55322;48.146;11.516;2022-12-29T14:23:40;11.38;54.95
68378;DHT22;55322;48.146;11.516;2022-12-29T14:28:37;11.33;55.88
68378;DHT22;55322;48.146;11.516;2022-12-29T14:31:07;11.27;56.12
68378;DHT22;55322;48.146;11.516;2022-12-29T14:36:34;11.22;56.28
68378;DHT22;55322;48.146;11.516;2022-12-29T14:39:00;11.22;56.20
68378;DHT22;55322;48.146;11.516;2022-12-29T14:41:32;11.16;56.93
68378;DHT22;55322;48.146;11.516;2022-12-29T14:44:18;11.04;57.76
68378;DHT22;55322;48.146;11.516;2022-12-29T14:49:23;11.00;56.52
68378;DHT22;55322;48.146;11.516;2022-12-29T14:51:52;10.89;57.44
68378;DHT22;55322;48.146;11.516;2022-12-29T14:54:42;10.93;56.86
68378;DHT22;55322;48.146;11.516;2022-12-29T14:57:15;10.93;54.74
68378;DHT22;55322;48.146;11.516;2022-12-29T14:59:44;10.93;53.99
68378;DHT22;55322;48.146;11.516;2022-12-29T15:02:23;10.97;50.66
68378;DHT22;55322;48.146;11.516;2022-12-29T15:04:50;10.86;52.75
68378;DHT22;55322;48.146;11.516;2022-12-29T15:07:18;10.82;50.41
68378;DHT22;55322;48.146;11.516;2022-12-29T15:10:03;10.75;49.31
68378;DHT22;55322;48.146;11.516;2022-12-29T15:12:45;10.69;49.45
68378;DHT22;55322;48.146;11.516;2022-12-29T15:15:36;10.65;49.56
68378;DHT22;55322;48.146;11.516;2022-12-29T15:18:25;10.52;49.62
68378;DHT22;55322;48.146;11.516;2022-12-29T15:20:53;10.44;50.19
68378;DHT22;55322;48.146;11.516;2022-12-29T15:23:19;10.34;50.28
68378;DHT22;55322;48.146;11.516;2022-12-29T15:28:25;10.14;51.35
68378;DHT22;55322;48.146;11.516;2022-12-29T15:33:22;9.91;53.40
68378;DHT22;55322;48.146;11.516;2022-12-29T15:35:52;9.77;54.76
68378;DHT22;55322;48.146;11.516;2022-12-29T15:38:23;9.69;53.02
68378;DHT22;55322;48.146;11.516;2022-12-29T15:41:03;9.65;52.06
68378;DHT22;55322;48.146;11.516;2022-12-29T15:43:49;9.61;51.31
68378;DHT22;55322;48.146;11.516;2022-12-29T15:46:16;9.53;53.54
68378;DHT22;55322;48.146;11.516;2022-12-29T15:48:41;9.37;55.59
68378;DHT22;55322;48.146;11.516;2022-12-29T15:51:31;9.37;52.39
68378;DHT22;55322;48.146;11.516;2022-12-29T15:53:57;9.29;55.75
68378;DHT22;55322;48.146;11.516;2022-12-29T15:56:23;9.30;53.33
68378;DHT22;55322;48.146;11.516;2022-12-29T15:58:51;9.24;54.16
68378;DHT22;55322;48.146;11.516;2022-12-29T16:03:51;9.26;52.96
68378;DHT22;55322;48.146;11.516;2022-12-29T16:06:27;9.24;53.37
68378;DHT22;55322;48.146;11.516;2022-12-29T16:11:26;9.22;53.14
68378;DHT22;55322;48.146;11.516;2022-12-29T16:13:53;9.12;55.51
68378;DHT22;55322;48.146;11.516;2022-12-29T16:16:25;9.18;53.51
68378;DHT22;55322;48.146;11.516;2022-12-29T16:18:52;9.15;53.87
68378;DHT22;55322;48.146;11.516;2022-12-29T16:21:23;9.12;53.60
68378;DHT22;55322;48.146;11.516;2022-12-29T16:23:51;9.15;53.99
68378;DHT22;55322;48.146;11.516;2022-12-29T16:26:19;9.13;55.17
68378;DHT22;55322;48.146;11.516;2022-12-29T16:29:01;9.12;56.49
68378;DHT22;55322;48.146;11.516;2022-12-29T16:34:32;9.09;57.74
68378;DHT22;55322;48.146;11.516;2022-12-29T16:36:59;9.13;57.64
68378;DHT22;55322;48.146;11.516;2022-12-29T16:39:38;9.12;58.27
68378;DHT22;55322;48.146;11.516;2022-12-29T16:50:30;9.16;57.89
68378;DHT22;55322;48.146;11.516;2022-12-29T17:52:31;8.99;63.52
68378;DHT22;55322;48.146;11.516;2022-12-29T17:54:57;8.93;64.53
68378;DHT22;55322;48.146;11.516;2022-12-29T17:57:22;8.93;63.69
68378;DHT22;55322;48.146;11.516;2022-12-29T17:59:48;8.95;64.83
68378;DHT22;55322;48.146;11.516;2022-12-29T18:02:27;8.82;66.56
68378;DHT22;55322;48.146;11.516;2022-12-29T18:04:53;8.72;65.20
68378;DHT22;55322;48.146;11.516;2022-12-29T18:07:19;8.75;65.54
68378;DHT22;55322;48.146;11.516;2022-12-29T18:09:44;8.68;65.45
68378;DHT22;55322;48.146;11.516;2022-12-29T18:12:26;8.57;66.31
68378;DHT22;55322;48.146;11.516;2022-12-29T18:14:53;8.49;66.45
68378;DHT22;55322;48.146;11.516;2022-12-29T18:17:18;8.37;67.10
68378;DHT22;55322;48.146;11.516;2022-12-29T18:19:44;8.27;68.11
68378;DHT22;55322;48.146;11.516;2022-12-29T18:22:09;8.15;69.09
68378;DHT22;55322;48.146;11.516;2022-12-29T18:24:34;8.07;68.08
68378;DHT22;55322;48.146;11.516;2022-12-29T18:27:01;8.04;68.95
68378;DHT22;55322;48.146;11.516;2022-12-29T18:29:26;8.03;67.28
68378;DHT22;55322;48.146;11.516;2022-12-29T18:31:52;7.98;68.22
68378;DHT22;55322;48.146;11.516;2022-12-29T18:34:18;8.01;66.94
68378;DHT22;55322;48.146;11.516;2022-12-29T18:36:44;8.00;67.16
68378;DHT22;55322;48.146;11.516;2022-12-29T18:39:10;8.18;64.23
68378;DHT22;55322;48.146;11.516;2022-12-29T18:41:35;8.13;66.22
68378;DHT22;55322;48.146;11.516;2022-12-29T18:44:01;8.10;65.81
68378;DHT22;55322;48.146;11.516;2022-12-29T18:46:26;8.13;65.59
68378;DHT22;55322;48.146;11.516;2022-12-29T18:48:52;8.15;64.70
68378;DHT22;55322;48.146;11.516;2022-12-29T18:51:20;8.15;64.95
68378;DHT22;55322;48.146;11.516;2022-12-29T18:53:46;8.21;63.79
68378;DHT22;55322;48.146;11.516;2022-12-29T18:56:12;8.23;63.11
68378;DHT22;55322;48.146;11.516;2022-12-29T18:58:37;8.27;62.19
68378;DHT22;55322;48.146;11.516;2022-12-29T19:01:03;8.38;61.14